createdAt,value
2023-03-23T15:58:40.006Z,15.44
2023-03-23T16:01:14.594Z,15.39
2023-03-23T16:03:53.984Z,15.35
2023-03-23T16:06:25.969Z,15.32
2023-03-23T16:08:57.635Z,15.28
2023-03-23T16:11:28.504Z,15.21
2023-03-23T16:13:56.467Z,15.14
2023-03-23T16:16:53.058Z,15.09
2023-03-23T16:19:24.413Z,15.01
2023-03-23T16:21:52.806Z,14.95
2023-03-23T16:24:21.051Z,14.86
2023-03-23T16:26:49.005Z,14.78
2023-03-23T16:29:39.738Z,14.66
2023-03-23T16:32:06.824Z,14.54
2023-03-23T16:34:35.750Z,14.45
2023-03-23T16:37:04.210Z,14.37
2023-03-23T16:39:32.161Z,14.29
2023-03-23T16:42:01.227Z,14.23
2023-03-23T16:44:29.343Z,14.15
2023-03-23T16:46:57.441Z,14.10
2023-03-23T16:49:25.975Z,14.03
2023-03-23T16:51:54.229Z,13.93
2023-03-23T16:54:22.956Z,13.86
2023-03-23T16:56:51.404Z,13.80
2023-03-23T16:59:19.596Z,13.75
2023-03-23T17:01:48.751Z,13.67
2023-03-23T17:04:17.386Z,13.64
2023-03-23T17:06:46.756Z,13.58
2023-03-23T17:09:15.756Z,13.54
2023-03-23T17:11:44.567Z,13.48
2023-03-23T17:14:12.567Z,13.44
2023-03-23T17:16:40.757Z,13.36
2023-03-23T17:19:09.956Z,13.29
2023-03-23T17:21:38.122Z,13.23
2023-03-23T17:24:08.198Z,13.19
2023-03-23T17:26:36.845Z,13.17
2023-03-23T17:29:06.625Z,13.12
2023-03-23T17:31:35.585Z,13.07
2023-03-23T17:34:03.906Z,13.04
2023-03-23T17:36:31.985Z,12.98
2023-03-23T17:38:59.993Z,12.93
2023-03-23T17:41:33.093Z,12.87
2023-03-23T17:44:01.596Z,12.81
2023-03-23T17:46:29.731Z,12.78
2023-03-23T17:48:57.775Z,12.77
2023-03-23T17:51:26.031Z,12.76
2023-03-23T17:53:53.998Z,12.76
2023-03-23T17:56:22.129Z,12.76
2023-03-23T17:58:50.691Z,12.75
2023-03-23T18:01:18.984Z,12.78
2023-03-23T18:03:47.005Z,12.81
2023-03-23T18:06:15.645Z,12.84
2023-03-23T18:08:43.708Z,12.85
2023-03-23T18:11:12.191Z,12.88
2023-03-23T18:13:40.328Z,12.88
2023-03-23T18:16:08.934Z,12.92
2023-03-23T18:18:37.484Z,12.96
2023-03-23T18:21:09.964Z,12.98
2023-03-23T18:23:49.394Z,13.02
2023-03-23T18:26:25.267Z,13.09
2023-03-23T18:28:53.907Z,13.14
2023-03-23T18:31:23.293Z,13.18
2023-03-23T18:33:55.150Z,13.23
2023-03-23T18:36:26.253Z,13.26
2023-03-23T18:38:57.037Z,13.31
2023-03-23T18:41:25.512Z,13.38
2023-03-23T18:43:53.961Z,13.43
2023-03-23T18:46:23.248Z,13.46
2023-03-23T18:48:51.265Z,13.47
2023-03-23T18:51:19.450Z,13.50
2023-03-23T18:53:47.637Z,13.52
2023-03-23T18:56:18.055Z,13.54
2023-03-23T18:58:46.324Z,13.55
2023-03-23T19:04:34.997Z,13.53
2023-03-23T19:07:03.597Z,13.51
2023-03-23T19:09:34.810Z,13.49
2023-03-23T19:12:03.192Z,13.46
2023-03-23T19:14:31.515Z,13.44
2023-03-23T19:16:59.635Z,13.41
2023-03-23T19:19:27.599Z,13.37
2023-03-23T19:21:55.686Z,13.32
2023-03-23T19:24:26.379Z,13.24
2023-03-23T19:26:54.566Z,13.13
2023-03-23T19:29:27.441Z,13.06
2023-03-23T19:31:56.725Z,13.00
2023-03-23T19:34:26.768Z,12.91
2023-03-23T19:37:03.221Z,12.89
2023-03-23T19:39:34.204Z,12.85
2023-03-23T19:42:04.294Z,12.80
2023-03-23T19:44:33.362Z,12.74
2023-03-23T19:47:02.949Z,12.66
2023-03-23T19:49:31.291Z,12.60
2023-03-23T19:52:09.079Z,12.46
2023-03-23T19:54:39.647Z,12.41
2023-03-23T19:57:10.102Z,12.35
2023-03-23T19:59:39.216Z,12.19
2023-03-23T20:02:08.217Z,12.06
2023-03-23T20:04:38.065Z,11.96
2023-03-23T20:07:08.671Z,11.84
2023-03-23T20:09:38.937Z,11.79
2023-03-23T20:12:07.289Z,11.74
2023-03-23T20:14:37.432Z,11.69
2023-03-23T20:17:10.046Z,11.66
2023-03-23T20:19:38.486Z,11.66
2023-03-23T20:22:06.870Z,11.64
2023-03-23T20:24:35.043Z,11.59
2023-03-23T20:27:03.989Z,11.58
2023-03-23T20:29:33.542Z,11.55
2023-03-23T20:32:01.762Z,11.54
2023-03-23T20:34:31.324Z,11.53
2023-03-23T20:37:01.916Z,11.50
2023-03-23T20:39:33.290Z,11.50
2023-03-23T20:42:03.396Z,11.49
2023-03-23T20:44:34.872Z,11.52
2023-03-23T20:47:04.196Z,11.53
2023-03-23T20:49:33.583Z,11.53
2023-03-23T20:52:02.015Z,11.54
2023-03-23T20:54:30.585Z,11.55
2023-03-23T20:56:59.171Z,11.53
2023-03-23T20:59:28.127Z,11.53
2023-03-23T21:01:59.143Z,11.52
2023-03-23T21:04:30.352Z,11.50
2023-03-23T21:06:58.396Z,11.51
2023-03-23T21:09:26.551Z,11.50
2023-03-23T21:11:55.033Z,11.47
2023-03-23T21:14:26.598Z,11.43
2023-03-23T21:16:54.801Z,11.40
2023-03-23T21:19:29.948Z,11.38
2023-03-23T21:21:58.267Z,11.35
2023-03-23T21:24:29.450Z,11.32
2023-03-23T21:27:00.297Z,11.27
2023-03-23T21:29:29.229Z,11.26
2023-03-23T21:32:08.415Z,11.24
2023-03-23T21:34:38.107Z,11.22
2023-03-23T21:37:06.436Z,11.19
2023-03-23T21:39:34.771Z,11.17
2023-03-23T21:42:06.997Z,11.15
2023-03-23T21:44:35.631Z,11.14
2023-03-23T21:47:03.945Z,11.13
2023-03-23T21:49:32.316Z,11.13
2023-03-23T21:52:00.562Z,11.13
2023-03-23T21:54:30.443Z,11.15
2023-03-23T21:56:59.282Z,11.17
2023-03-23T21:59:28.240Z,11.19
2023-03-23T22:01:58.333Z,11.18
2023-03-23T22:04:28.140Z,11.18
2023-03-23T22:06:57.076Z,11.19
2023-03-23T22:09:25.589Z,11.17
2023-03-23T22:11:54.063Z,11.17
2023-03-23T22:14:28.837Z,11.16
2023-03-23T22:16:57.017Z,11.16
2023-03-23T22:19:25.302Z,11.20
2023-03-23T22:21:53.587Z,11.23
2023-03-23T22:24:22.004Z,11.23
2023-03-23T22:26:50.597Z,11.24
2023-03-23T22:29:19.221Z,11.22
2023-03-23T22:31:47.565Z,11.21
2023-03-23T22:34:16.726Z,11.19
2023-03-23T22:36:45.176Z,11.21
2023-03-23T22:39:14.438Z,11.22
2023-03-23T22:41:42.915Z,11.24
2023-03-23T22:44:14.484Z,11.25
2023-03-23T22:46:43.731Z,11.25
2023-03-23T22:49:12.449Z,11.23
2023-03-23T22:51:40.983Z,11.26
2023-03-23T22:54:11.084Z,11.29
2023-03-23T22:56:40.144Z,11.29
2023-03-23T22:59:12.277Z,11.26
2023-03-23T23:01:41.754Z,11.22
2023-03-23T23:04:10.142Z,11.17
2023-03-23T23:06:38.556Z,11.13
2023-03-23T23:09:07.173Z,11.08
2023-03-23T23:11:35.696Z,11.02
2023-03-23T23:14:04.101Z,10.95
2023-03-23T23:16:32.685Z,10.91
2023-03-23T23:19:00.949Z,10.87
2023-03-23T23:21:30.308Z,10.82
2023-03-23T23:23:58.571Z,10.78
2023-03-23T23:26:27.625Z,10.73
2023-03-23T23:28:55.928Z,10.66
2023-03-23T23:31:31.649Z,10.60
2023-03-23T23:34:01.611Z,10.57
2023-03-23T23:36:31.944Z,10.52
2023-03-23T23:39:01.704Z,10.47
2023-03-23T23:41:30.949Z,10.39
2023-03-23T23:44:00.155Z,10.30
2023-03-23T23:46:30.633Z,10.23
2023-03-23T23:49:00.439Z,10.13
2023-03-23T23:51:29.804Z,10.04
2023-03-23T23:54:01.880Z,9.96
2023-03-23T23:56:30.438Z,9.90
2023-03-23T23:59:00.714Z,9.83
